sensor_id;sensor_type;location;lat;lon;timestamp;P1;durP1;ratioP1;P2;durP2;ratioP2
19167;SDS011;9716;53.114;18.040;2023-02-17T00:00:06;31.83;;;15.93;;
19167;SDS011;9716;53.114;18.040;2023-02-17T00:02:57;38.17;;;15.90;;
19167;SDS011;9716;53.114;18.040;2023-02-17T00:05:26;35.43;;;17.23;;
19167;SDS011;9716;53.114;18.040;2023-02-17T00:07:55;34.83;;;17.67;;
19167;SDS011;9716;53.114;18.040;2023-02-17T00:10:24;37.90;;;17.03;;
19167;SDS011;9716;53.114;18.040;2023-02-17T00:12:53;37.60;;;15.97;;
19167;SDS011;9716;53.114;18.040;2023-02-17T00:15:21;36.37;;;16.10;;
19167;SDS011;9716;53.114;18.040;2023-02-17T00:17:50;30.23;;;15.33;;
19167;SDS011;9716;53.114;18.040;2023-02-17T00:20:18;35.63;;;16.10;;
19167;SDS011;9716;53.114;18.040;2023-02-17T00:22:47;37.60;;;15.63;;
19167;SDS011;9716;53.114;18.040;2023-02-17T00:25:15;31.17;;;15.47;;
19167;SDS011;9716;53.114;18.040;2023-02-17T00:27:45;34.70;;;15.50;;
19167;SDS011;9716;53.114;18.040;2023-02-17T00:30:13;38.50;;;16.57;;
19167;SDS011;9716;53.114;18.040;2023-02-17T00:32:43;35.60;;;14.90;;
19167;SDS011;9716;53.114;18.040;2023-02-17T00:35:11;40.10;;;16.03;;
19167;SDS011;9716;53.114;18.040;2023-02-17T00:37:40;38.87;;;15.13;;
19167;SDS011;9716;53.114;18.040;2023-02-17T00:40:11;41.23;;;14.67;;
19167;SDS011;9716;53.114;18.040;2023-02-17T00:42:40;29.90;;;15.03;;
19167;SDS011;9716;53.114;18.040;2023-02-17T00:45:10;32.93;;;14.80;;
19167;SDS011;9716;53.114;18.040;2023-02-17T00:47:39;32.90;;;15.47;;
19167;SDS011;9716;53.114;18.040;2023-02-17T00:50:07;41.30;;;13.40;;
19167;SDS011;9716;53.114;18.040;2023-02-17T00:52:36;33.07;;;14.47;;
19167;SDS011;9716;53.114;18.040;2023-02-17T00:55:05;34.47;;;15.90;;
19167;SDS011;9716;53.114;18.040;2023-02-17T01:01:48;34.50;;;14.33;;
19167;SDS011;9716;53.114;18.040;2023-02-17T01:04:16;35.50;;;13.63;;
19167;SDS011;9716;53.114;18.040;2023-02-17T01:06:45;29.03;;;13.27;;
19167;SDS011;9716;53.114;18.040;2023-02-17T01:09:13;37.83;;;15.03;;
19167;SDS011;9716;53.114;18.040;2023-02-17T01:11:42;33.93;;;14.43;;
19167;SDS011;9716;53.114;18.040;2023-02-17T01:14:11;32.67;;;14.73;;
19167;SDS011;9716;53.114;18.040;2023-02-17T01:16:42;30.40;;;13.87;;
19167;SDS011;9716;53.114;18.040;2023-02-17T01:19:15;34.00;;;15.17;;
19167;SDS011;9716;53.114;18.040;2023-02-17T01:21:44;37.60;;;14.20;;
19167;SDS011;9716;53.114;18.040;2023-02-17T01:24:13;30.70;;;14.30;;
19167;SDS011;9716;53.114;18.040;2023-02-17T01:26:41;31.73;;;13.83;;
19167;SDS011;9716;53.114;18.040;2023-02-17T01:29:10;36.57;;;14.60;;
19167;SDS011;9716;53.114;18.040;2023-02-17T01:31:38;29.53;;;14.30;;
19167;SDS011;9716;53.114;18.040;2023-02-17T01:34:09;30.50;;;13.87;;
19167;SDS011;9716;53.114;18.040;2023-02-17T01:36:38;34.97;;;14.10;;
19167;SDS011;9716;53.114;18.040;2023-02-17T01:39:07;33.60;;;13.87;;
19167;SDS011;9716;53.114;18.040;2023-02-17T01:41:36;27.00;;;12.97;;
19167;SDS011;9716;53.114;18.040;2023-02-17T01:44:06;32.57;;;14.50;;
19167;SDS011;9716;53.114;18.040;2023-02-17T01:46:40;30.13;;;14.00;;
19167;SDS011;9716;53.114;18.040;2023-02-17T01:49:22;32.33;;;12.87;;
19167;SDS011;9716;53.114;18.040;2023-02-17T01:51:58;25.13;;;13.53;;
19167;SDS011;9716;53.114;18.040;2023-02-17T01:54:33;31.30;;;15.17;;
19167;SDS011;9716;53.114;18.040;2023-02-17T01:57:05;32.73;;;15.00;;
19167;SDS011;9716;53.114;18.040;2023-02-17T01:59:34;31.47;;;13.70;;
19167;SDS011;9716;53.114;18.040;2023-02-17T02:02:03;31.73;;;14.03;;
19167;SDS011;9716;53.114;18.040;2023-02-17T02:04:34;28.10;;;12.43;;
19167;SDS011;9716;53.114;18.040;2023-02-17T02:07:09;30.30;;;13.67;;
19167;SDS011;9716;53.114;18.040;2023-02-17T02:09:42;26.67;;;12.47;;
19167;SDS011;9716;53.114;18.040;2023-02-17T02:12:17;28.23;;;13.27;;
19167;SDS011;9716;53.114;18.040;2023-02-17T02:14:47;31.40;;;13.13;;
19167;SDS011;9716;53.114;18.040;2023-02-17T02:17:20;29.90;;;13.80;;
19167;SDS011;9716;53.114;18.040;2023-02-17T02:19:59;29.17;;;13.07;;
19167;SDS011;9716;53.114;18.040;2023-02-17T02:25:53;27.07;;;13.73;;
19167;SDS011;9716;53.114;18.040;2023-02-17T02:28:56;27.63;;;13.43;;
19167;SDS011;9716;53.114;18.040;2023-02-17T02:31:40;32.33;;;13.93;;
19167;SDS011;9716;53.114;18.040;2023-02-17T02:34:14;31.40;;;13.67;;
19167;SDS011;9716;53.114;18.040;2023-02-17T02:36:48;28.07;;;12.70;;
19167;SDS011;9716;53.114;18.040;2023-02-17T02:39:23;26.50;;;12.63;;
19167;SDS011;9716;53.114;18.040;2023-02-17T02:41:57;29.87;;;13.90;;
19167;SDS011;9716;53.114;18.040;2023-02-17T02:44:28;26.83;;;13.57;;
19167;SDS011;9716;53.114;18.040;2023-02-17T02:46:57;26.00;;;12.93;;
19167;SDS011;9716;53.114;18.040;2023-02-17T02:49:28;26.13;;;13.07;;
19167;SDS011;9716;53.114;18.040;2023-02-17T02:51:58;28.20;;;10.83;;
19167;SDS011;9716;53.114;18.040;2023-02-17T02:54:35;29.73;;;14.23;;
19167;SDS011;9716;53.114;18.040;2023-02-17T02:57:17;22.87;;;12.50;;
19167;SDS011;9716;53.114;18.040;2023-02-17T02:59:52;31.40;;;14.23;;
19167;SDS011;9716;53.114;18.040;2023-02-17T03:02:31;28.33;;;13.27;;
19167;SDS011;9716;53.114;18.040;2023-02-17T03:05:08;31.37;;;13.60;;
19167;SDS011;9716;53.114;18.040;2023-02-17T03:07:58;37.37;;;12.87;;
19167;SDS011;9716;53.114;18.040;2023-02-17T03:10:30;34.97;;;13.53;;
19167;SDS011;9716;53.114;18.040;2023-02-17T03:12:59;29.97;;;12.63;;
19167;SDS011;9716;53.114;18.040;2023-02-17T03:15:29;27.50;;;12.07;;
19167;SDS011;9716;53.114;18.040;2023-02-17T03:18:00;29.03;;;12.17;;
19167;SDS011;9716;53.114;18.040;2023-02-17T03:20:31;26.80;;;12.60;;
19167;SDS011;9716;53.114;18.040;2023-02-17T03:23:03;29.93;;;12.27;;
19167;SDS011;9716;53.114;18.040;2023-02-17T03:25:33;33.10;;;13.40;;
19167;SDS011;9716;53.114;18.040;2023-02-17T03:28:02;28.03;;;12.03;;
19167;SDS011;9716;53.114;18.040;2023-02-17T03:30:30;26.90;;;12.00;;
19167;SDS011;9716;53.114;18.040;2023-02-17T03:32:59;23.27;;;11.50;;
19167;SDS011;9716;53.114;18.040;2023-02-17T03:35:28;26.27;;;12.73;;
19167;SDS011;9716;53.114;18.040;2023-02-17T03:37:58;31.30;;;12.63;;
19167;SDS011;9716;53.114;18.040;2023-02-17T03:40:26;31.77;;;13.03;;
19167;SDS011;9716;53.114;18.040;2023-02-17T03:42:55;25.50;;;12.50;;
19167;SDS011;9716;53.114;18.040;2023-02-17T03:45:24;25.80;;;13.00;;
19167;SDS011;9716;53.114;18.040;2023-02-17T03:47:53;23.07;;;12.37;;
19167;SDS011;9716;53.114;18.040;2023-02-17T03:50:21;31.53;;;13.47;;
19167;SDS011;9716;53.114;18.040;2023-02-17T03:52:49;25.27;;;12.27;;
19167;SDS011;9716;53.114;18.040;2023-02-17T03:55:19;31.27;;;12.53;;
19167;SDS011;9716;53.114;18.040;2023-02-17T03:57:48;31.13;;;12.83;;
19167;SDS011;9716;53.114;18.040;2023-02-17T04:00:16;22.60;;;11.60;;
19167;SDS011;9716;53.114;18.040;2023-02-17T04:02:45;33.30;;;14.00;;
19167;SDS011;9716;53.114;18.040;2023-02-17T04:05:14;31.87;;;12.33;;
19167;SDS011;9716;53.114;18.040;2023-02-17T04:07:43;25.73;;;12.43;;
19167;SDS011;9716;53.114;18.040;2023-02-17T04:10:11;30.77;;;13.37;;
19167;SDS011;9716;53.114;18.040;2023-02-17T04:12:41;30.50;;;12.27;;
19167;SDS011;9716;53.114;18.040;2023-02-17T04:15:09;30.73;;;12.73;;
19167;SDS011;9716;53.114;18.040;2023-02-17T04:17:38;25.77;;;12.70;;
19167;SDS011;9716;53.114;18.040;2023-02-17T04:20:07;26.83;;;13.00;;
19167;SDS011;9716;53.114;18.040;2023-02-17T04:22:36;26.77;;;11.93;;
19167;SDS011;9716;53.114;18.040;2023-02-17T04:25:04;26.97;;;13.30;;
19167;SDS011;9716;53.114;18.040;2023-02-17T04:27:33;27.53;;;12.97;;
19167;SDS011;9716;53.114;18.040;2023-02-17T04:30:03;26.07;;;12.50;;
19167;SDS011;9716;53.114;18.040;2023-02-17T04:32:32;27.30;;;11.90;;
19167;SDS011;9716;53.114;18.040;2023-02-17T04:35:01;26.33;;;11.43;;
19167;SDS011;9716;53.114;18.040;2023-02-17T04:37:29;34.47;;;13.67;;
19167;SDS011;9716;53.114;18.040;2023-02-17T04:39:58;29.03;;;13.03;;
19167;SDS011;9716;53.114;18.040;2023-02-17T04:42:26;23.23;;;11.67;;
19167;SDS011;9716;53.114;18.040;2023-02-17T04:44:55;32.27;;;12.80;;
19167;SDS011;9716;53.114;18.040;2023-02-17T04:47:25;29.83;;;12.87;;
19167;SDS011;9716;53.114;18.040;2023-02-17T04:49:54;27.67;;;12.03;;
19167;SDS011;9716;53.114;18.040;2023-02-17T04:52:22;24.87;;;12.63;;
19167;SDS011;9716;53.114;18.040;2023-02-17T04:54:51;26.10;;;12.03;;
19167;SDS011;9716;53.114;18.040;2023-02-17T04:57:20;28.13;;;11.73;;
19167;SDS011;9716;53.114;18.040;2023-02-17T04:59:48;25.53;;;12.27;;
19167;SDS011;9716;53.114;18.040;2023-02-17T05:02:17;24.47;;;12.73;;
19167;SDS011;9716;53.114;18.040;2023-02-17T05:04:46;26.73;;;12.57;;
19167;SDS011;9716;53.114;18.040;2023-02-17T05:07:15;31.83;;;12.37;;
19167;SDS011;9716;53.114;18.040;2023-02-17T05:09:43;22.30;;;10.40;;
19167;SDS011;9716;53.114;18.040;2023-02-17T05:12:12;26.47;;;10.73;;
19167;SDS011;9716;53.114;18.040;2023-02-17T05:14:40;25.10;;;11.20;;
19167;SDS011;9716;53.114;18.040;2023-02-17T05:17:09;29.80;;;12.07;;
19167;SDS011;9716;53.114;18.040;2023-02-17T05:19:37;21.00;;;11.93;;
19167;SDS011;9716;53.114;18.040;2023-02-17T05:22:07;27.20;;;11.53;;
19167;SDS011;9716;53.114;18.040;2023-02-17T05:24:35;25.00;;;12.00;;
19167;SDS011;9716;53.114;18.040;2023-02-17T05:27:04;29.07;;;13.00;;
19167;SDS011;9716;53.114;18.040;2023-02-17T05:29:33;26.93;;;11.70;;
19167;SDS011;9716;53.114;18.040;2023-02-17T05:32:02;27.37;;;11.20;;
19167;SDS011;9716;53.114;18.040;2023-02-17T05:34:30;26.37;;;12.40;;
19167;SDS011;9716;53.114;18.040;2023-02-17T05:37:02;26.00;;;11.27;;
19167;SDS011;9716;53.114;18.040;2023-02-17T05:39:33;23.53;;;12.27;;
19167;SDS011;9716;53.114;18.040;2023-02-17T05:42:02;23.27;;;11.60;;
19167;SDS011;9716;53.114;18.040;2023-02-17T05:44:30;28.77;;;11.60;;
19167;SDS011;9716;53.114;18.040;2023-02-17T05:46:59;25.57;;;12.27;;
19167;SDS011;9716;53.114;18.040;2023-02-17T05:49:27;29.40;;;12.77;;
19167;SDS011;9716;53.114;18.040;2023-02-17T05:51:55;25.17;;;11.50;;
19167;SDS011;9716;53.114;18.040;2023-02-17T05:54:24;27.73;;;12.07;;
19167;SDS011;9716;53.114;18.040;2023-02-17T05:56:54;22.53;;;11.37;;
19167;SDS011;9716;53.114;18.040;2023-02-17T05:59:22;24.90;;;11.10;;
19167;SDS011;9716;53.114;18.040;2023-02-17T06:01:51;30.23;;;11.60;;
19167;SDS011;9716;53.114;18.040;2023-02-17T06:04:20;26.57;;;11.93;;
19167;SDS011;9716;53.114;18.040;2023-02-17T06:06:49;24.07;;;11.13;;
19167;SDS011;9716;53.114;18.040;2023-02-17T06:09:17;34.00;;;12.20;;
19167;SDS011;9716;53.114;18.040;2023-02-17T06:11:46;24.47;;;10.93;;
19167;SDS011;9716;53.114;18.040;2023-02-17T06:14:16;24.50;;;11.47;;
19167;SDS011;9716;53.114;18.040;2023-02-17T06:16:45;25.20;;;11.53;;
19167;SDS011;9716;53.114;18.040;2023-02-17T06:19:13;24.87;;;10.93;;
19167;SDS011;9716;53.114;18.040;2023-02-17T06:21:42;29.63;;;11.17;;
19167;SDS011;9716;53.114;18.040;2023-02-17T06:24:10;23.67;;;11.90;;
19167;SDS011;9716;53.114;18.040;2023-02-17T06:26:39;28.43;;;11.80;;
19167;SDS011;9716;53.114;18.040;2023-02-17T06:29:07;25.70;;;12.47;;
19167;SDS011;9716;53.114;18.040;2023-02-17T06:31:37;25.80;;;11.33;;
19167;SDS011;9716;53.114;18.040;2023-02-17T06:34:06;22.30;;;11.53;;
19167;SDS011;9716;53.114;18.040;2023-02-17T06:36:35;34.47;;;12.80;;
19167;SDS011;9716;53.114;18.040;2023-02-17T06:39:04;29.10;;;13.43;;
19167;SDS011;9716;53.114;18.040;2023-02-17T06:41:33;27.63;;;12.60;;
19167;SDS011;9716;53.114;18.040;2023-02-17T06:44:01;23.47;;;11.90;;
19167;SDS011;9716;53.114;18.040;2023-02-17T06:46:30;20.33;;;11.53;;
19167;SDS011;9716;53.114;18.040;2023-02-17T06:49:00;30.90;;;13.47;;
19167;SDS011;9716;53.114;18.040;2023-02-17T06:51:28;30.03;;;12.67;;
19167;SDS011;9716;53.114;18.040;2023-02-17T06:53:57;26.97;;;12.80;;
19167;SDS011;9716;53.114;18.040;2023-02-17T06:56:25;30.37;;;13.07;;
19167;SDS011;9716;53.114;18.040;2023-02-17T06:58:54;26.90;;;12.43;;
19167;SDS011;9716;53.114;18.040;2023-02-17T07:01:24;28.53;;;12.37;;
19167;SDS011;9716;53.114;18.040;2023-02-17T07:03:53;33.83;;;12.37;;
19167;SDS011;9716;53.114;18.040;2023-02-17T07:06:24;24.77;;;12.10;;
19167;SDS011;9716;53.114;18.040;2023-02-17T07:08:53;28.80;;;13.30;;
19167;SDS011;9716;53.114;18.040;2023-02-17T07:11:21;27.27;;;13.30;;
19167;SDS011;9716;53.114;18.040;2023-02-17T07:13:51;32.83;;;12.83;;
19167;SDS011;9716;53.114;18.040;2023-02-17T07:16:20;23.63;;;12.50;;
19167;SDS011;9716;53.114;18.040;2023-02-17T07:18:48;28.83;;;13.17;;
19167;SDS011;9716;53.114;18.040;2023-02-17T07:21:17;30.37;;;13.07;;
19167;SDS011;9716;53.114;18.040;2023-02-17T07:23:48;29.93;;;12.27;;
19167;SDS011;9716;53.114;18.040;2023-02-17T07:26:16;23.80;;;12.40;;
19167;SDS011;9716;53.114;18.040;2023-02-17T07:28:45;21.60;;;11.77;;
19167;SDS011;9716;53.114;18.040;2023-02-17T07:31:15;30.53;;;12.00;;
19167;SDS011;9716;53.114;18.040;2023-02-17T07:33:44;32.67;;;12.67;;
19167;SDS011;9716;53.114;18.040;2023-02-17T07:36:15;30.77;;;12.30;;
19167;SDS011;9716;53.114;18.040;2023-02-17T07:38:44;26.77;;;13.03;;
19167;SDS011;9716;53.114;18.040;2023-02-17T07:41:14;34.43;;;13.00;;
19167;SDS011;9716;53.114;18.040;2023-02-17T07:43:44;24.93;;;13.00;;
19167;SDS011;9716;53.114;18.040;2023-02-17T07:46:13;29.23;;;14.07;;
19167;SDS011;9716;53.114;18.040;2023-02-17T07:48:42;33.83;;;12.70;;
19167;SDS011;9716;53.114;18.040;2023-02-17T07:51:12;35.67;;;13.27;;
19167;SDS011;9716;53.114;18.040;2023-02-17T07:53:41;26.30;;;13.17;;
19167;SDS011;9716;53.114;18.040;2023-02-17T07:56:11;33.87;;;14.43;;
19167;SDS011;9716;53.114;18.040;2023-02-17T07:58:42;27.47;;;12.80;;
19167;SDS011;9716;53.114;18.040;2023-02-17T08:01:12;29.93;;;12.87;;
19167;SDS011;9716;53.114;18.040;2023-02-17T08:03:42;22.30;;;13.13;;
19167;SDS011;9716;53.114;18.040;2023-02-17T08:06:12;30.83;;;13.97;;
19167;SDS011;9716;53.114;18.040;2023-02-17T08:08:42;31.73;;;14.50;;
19167;SDS011;9716;53.114;18.040;2023-02-17T08:11:30;24.70;;;13.23;;
19167;SDS011;9716;53.114;18.040;2023-02-17T08:14:16;30.47;;;14.30;;
19167;SDS011;9716;53.114;18.040;2023-02-17T08:17:03;28.60;;;13.47;;
19167;SDS011;9716;53.114;18.040;2023-02-17T08:19:31;32.43;;;14.37;;
19167;SDS011;9716;53.114;18.040;2023-02-17T08:22:14;33.30;;;14.73;;
19167;SDS011;9716;53.114;18.040;2023-02-17T08:24:42;30.07;;;13.77;;
19167;SDS011;9716;53.114;18.040;2023-02-17T08:27:13;32.30;;;15.30;;
19167;SDS011;9716;53.114;18.040;2023-02-17T08:29:42;35.57;;;15.50;;
19167;SDS011;9716;53.114;18.040;2023-02-17T08:32:10;34.53;;;14.43;;
19167;SDS011;9716;53.114;18.040;2023-02-17T08:34:40;32.33;;;15.40;;
19167;SDS011;9716;53.114;18.040;2023-02-17T08:37:09;31.47;;;14.10;;
19167;SDS011;9716;53.114;18.040;2023-02-17T08:39:38;31.10;;;14.87;;
19167;SDS011;9716;53.114;18.040;2023-02-17T08:42:06;30.60;;;13.10;;
19167;SDS011;9716;53.114;18.040;2023-02-17T08:44:37;34.93;;;15.53;;
19167;SDS011;9716;53.114;18.040;2023-02-17T08:47:06;39.87;;;15.67;;
19167;SDS011;9716;53.114;18.040;2023-02-17T08:49:36;29.23;;;14.80;;
19167;SDS011;9716;53.114;18.040;2023-02-17T08:52:04;31.17;;;15.30;;
19167;SDS011;9716;53.114;18.040;2023-02-17T08:54:33;32.90;;;14.37;;
19167;SDS011;9716;53.114;18.040;2023-02-17T08:57:01;27.77;;;13.97;;
19167;SDS011;9716;53.114;18.040;2023-02-17T08:59:30;35.50;;;15.00;;
19167;SDS011;9716;53.114;18.040;2023-02-17T09:02:00;24.97;;;13.53;;
19167;SDS011;9716;53.114;18.040;2023-02-17T09:04:28;34.27;;;15.70;;
19167;SDS011;9716;53.114;18.040;2023-02-17T09:06:57;25.67;;;13.67;;
19167;SDS011;9716;53.114;18.040;2023-02-17T09:09:26;42.10;;;16.23;;
19167;SDS011;9716;53.114;18.040;2023-02-17T09:11:57;37.77;;;14.63;;
19167;SDS011;9716;53.114;18.040;2023-02-17T09:14:26;35.70;;;14.73;;
19167;SDS011;9716;53.114;18.040;2023-02-17T09:16:54;29.77;;;14.07;;
19167;SDS011;9716;53.114;18.040;2023-02-17T09:19:25;37.87;;;14.20;;
19167;SDS011;9716;53.114;18.040;2023-02-17T09:21:54;38.20;;;14.57;;
19167;SDS011;9716;53.114;18.040;2023-02-17T09:24:23;36.47;;;14.73;;
19167;SDS011;9716;53.114;18.040;2023-02-17T09:26:52;32.43;;;14.67;;
19167;SDS011;9716;53.114;18.040;2023-02-17T09:29:20;29.13;;;13.97;;
19167;SDS011;9716;53.114;18.040;2023-02-17T09:31:49;36.60;;;14.23;;
19167;SDS011;9716;53.114;18.040;2023-02-17T09:34:17;31.33;;;13.87;;
19167;SDS011;9716;53.114;18.040;2023-02-17T09:36:47;31.43;;;15.57;;
19167;SDS011;9716;53.114;18.040;2023-02-17T09:39:16;31.33;;;14.67;;
19167;SDS011;9716;53.114;18.040;2023-02-17T09:41:46;27.60;;;13.33;;
19167;SDS011;9716;53.114;18.040;2023-02-17T09:44:19;30.83;;;13.90;;
19167;SDS011;9716;53.114;18.040;2023-02-17T09:46:51;35.20;;;15.87;;
19167;SDS011;9716;53.114;18.040;2023-02-17T09:49:30;30.47;;;14.47;;
19167;SDS011;9716;53.114;18.040;2023-02-17T09:52:06;28.60;;;14.17;;
19167;SDS011;9716;53.114;18.040;2023-02-17T09:54:40;38.73;;;14.10;;
19167;SDS011;9716;53.114;18.040;2023-02-17T09:57:15;37.93;;;15.40;;
19167;SDS011;9716;53.114;18.040;2023-02-17T09:59:47;28.47;;;14.67;;
19167;SDS011;9716;53.114;18.040;2023-02-17T10:02:23;36.93;;;15.00;;
19167;SDS011;9716;53.114;18.040;2023-02-17T10:04:54;30.37;;;13.90;;
19167;SDS011;9716;53.114;18.040;2023-02-17T10:07:29;27.60;;;14.37;;
19167;SDS011;9716;53.114;18.040;2023-02-17T10:10:03;34.90;;;14.67;;
19167;SDS011;9716;53.114;18.040;2023-02-17T10:12:35;34.10;;;13.47;;
19167;SDS011;9716;53.114;18.040;2023-02-17T10:15:07;22.07;;;12.57;;
19167;SDS011;9716;53.114;18.040;2023-02-17T10:17:45;37.33;;;14.23;;
19167;SDS011;9716;53.114;18.040;2023-02-17T10:20:18;27.33;;;13.10;;
19167;SDS011;9716;53.114;18.040;2023-02-17T10:22:52;27.43;;;13.53;;
19167;SDS011;9716;53.114;18.040;2023-02-17T10:25:32;25.67;;;12.10;;
19167;SDS011;9716;53.114;18.040;2023-02-17T10:28:14;33.10;;;14.47;;
19167;SDS011;9716;53.114;18.040;2023-02-17T10:30:47;25.90;;;13.80;;
19167;SDS011;9716;53.114;18.040;2023-02-17T10:33:22;30.53;;;13.70;;
19167;SDS011;9716;53.114;18.040;2023-02-17T10:35:57;28.90;;;13.27;;
19167;SDS011;9716;53.114;18.040;2023-02-17T10:38:42;25.03;;;12.47;;
19167;SDS011;9716;53.114;18.040;2023-02-17T10:41:19;29.40;;;12.90;;
19167;SDS011;9716;53.114;18.040;2023-02-17T10:43:50;29.83;;;12.13;;
19167;SDS011;9716;53.114;18.040;2023-02-17T10:46:23;25.70;;;12.60;;
19167;SDS011;9716;53.114;18.040;2023-02-17T10:48:54;24.97;;;12.20;;
19167;SDS011;9716;53.114;18.040;2023-02-17T10:51:26;29.30;;;12.83;;
19167;SDS011;9716;53.114;18.040;2023-02-17T10:53:58;27.73;;;13.67;;
19167;SDS011;9716;53.114;18.040;2023-02-17T10:56:31;32.53;;;13.43;;
19167;SDS011;9716;53.114;18.040;2023-02-17T10:59:05;35.97;;;12.60;;
19167;SDS011;9716;53.114;18.040;2023-02-17T11:01:38;27.43;;;11.03;;
19167;SDS011;9716;53.114;18.040;2023-02-17T11:04:08;25.03;;;13.27;;
19167;SDS011;9716;53.114;18.040;2023-02-17T11:06:40;28.47;;;11.63;;
19167;SDS011;9716;53.114;18.040;2023-02-17T11:09:18;31.63;;;13.80;;
19167;SDS011;9716;53.114;18.040;2023-02-17T11:11:57;26.37;;;12.30;;
19167;SDS011;9716;53.114;18.040;2023-02-17T11:14:27;21.17;;;10.60;;
19167;SDS011;9716;53.114;18.040;2023-02-17T11:16:58;23.87;;;12.47;;
19167;SDS011;9716;53.114;18.040;2023-02-17T11:19:28;30.23;;;12.20;;
19167;SDS011;9716;53.114;18.040;2023-02-17T11:22:00;20.67;;;10.43;;
19167;SDS011;9716;53.114;18.040;2023-02-17T11:24:32;29.17;;;11.90;;
19167;SDS011;9716;53.114;18.040;2023-02-17T11:27:03;25.60;;;11.23;;
19167;SDS011;9716;53.114;18.040;2023-02-17T11:29:34;25.43;;;12.30;;
19167;SDS011;9716;53.114;18.040;2023-02-17T11:32:04;21.53;;;10.60;;
19167;SDS011;9716;53.114;18.040;2023-02-17T11:34:35;30.53;;;12.13;;
19167;SDS011;9716;53.114;18.040;2023-02-17T11:37:15;27.13;;;11.70;;
19167;SDS011;9716;53.114;18.040;2023-02-17T11:39:49;19.03;;;10.53;;
19167;SDS011;9716;53.114;18.040;2023-02-17T11:42:20;25.73;;;12.53;;
19167;SDS011;9716;53.114;18.040;2023-02-17T11:44:49;21.17;;;10.20;;
19167;SDS011;9716;53.114;18.040;2023-02-17T11:47:20;25.13;;;11.10;;
19167;SDS011;9716;53.114;18.040;2023-02-17T11:53:11;21.73;;;9.93;;
19167;SDS011;9716;53.114;18.040;2023-02-17T11:55:56;23.47;;;10.37;;
19167;SDS011;9716;53.114;18.040;2023-02-17T11:58:37;18.13;;;10.67;;
19167;SDS011;9716;53.114;18.040;2023-02-17T12:01:29;20.93;;;10.80;;
19167;SDS011;9716;53.114;18.040;2023-02-17T12:04:19;20.70;;;10.40;;
19167;SDS011;9716;53.114;18.040;2023-02-17T12:06:57;21.63;;;9.20;;
19167;SDS011;9716;53.114;18.040;2023-02-17T12:09:46;21.87;;;10.07;;
19167;SDS011;9716;53.114;18.040;2023-02-17T12:12:28;30.23;;;11.37;;
19167;SDS011;9716;53.114;18.040;2023-02-17T12:15:21;20.07;;;9.90;;
19167;SDS011;9716;53.114;18.040;2023-02-17T12:18:00;22.50;;;10.13;;
19167;SDS011;9716;53.114;18.040;2023-02-17T12:20:38;21.73;;;10.83;;
19167;SDS011;9716;53.114;18.040;2023-02-17T12:23:19;19.00;;;9.83;;
19167;SDS011;9716;53.114;18.040;2023-02-17T12:26:08;22.07;;;10.47;;
19167;SDS011;9716;53.114;18.040;2023-02-17T12:28:45;16.87;;;9.60;;
19167;SDS011;9716;53.114;18.040;2023-02-17T12:31:28;21.13;;;8.83;;
19167;SDS011;9716;53.114;18.040;2023-02-17T12:34:11;19.05;;;9.73;;
19167;SDS011;9716;53.114;18.040;2023-02-17T12:36:47;15.97;;;9.17;;
19167;SDS011;9716;53.114;18.040;2023-02-17T12:39:17;16.40;;;9.57;;
19167;SDS011;9716;53.114;18.040;2023-02-17T12:41:50;17.88;;;9.43;;
19167;SDS011;9716;53.114;18.040;2023-02-17T12:44:25;16.30;;;8.90;;
19167;SDS011;9716;53.114;18.040;2023-02-17T12:46:57;22.63;;;10.03;;
19167;SDS011;9716;53.114;18.040;2023-02-17T12:49:33;20.57;;;9.07;;
19167;SDS011;9716;53.114;18.040;2023-02-17T12:52:07;18.93;;;8.67;;
19167;SDS011;9716;53.114;18.040;2023-02-17T12:54:40;16.93;;;9.13;;
19167;SDS011;9716;53.114;18.040;2023-02-17T12:57:16;14.93;;;8.73;;
19167;SDS011;9716;53.114;18.040;2023-02-17T12:59:48;19.23;;;9.43;;
19167;SDS011;9716;53.114;18.040;2023-02-17T13:02:19;18.03;;;9.87;;
19167;SDS011;9716;53.114;18.040;2023-02-17T13:04:49;18.20;;;8.10;;
19167;SDS011;9716;53.114;18.040;2023-02-17T13:07:34;18.33;;;8.27;;
19167;SDS011;9716;53.114;18.040;2023-02-17T13:10:27;18.00;;;8.27;;
19167;SDS011;9716;53.114;18.040;2023-02-17T13:13:02;15.50;;;8.83;;
19167;SDS011;9716;53.114;18.040;2023-02-17T13:15:34;18.30;;;8.27;;
19167;SDS011;9716;53.114;18.040;2023-02-17T13:18:06;15.47;;;8.90;;
19167;SDS011;9716;53.114;18.040;2023-02-17T13:20:40;14.70;;;8.10;;
19167;SDS011;9716;53.114;18.040;2023-02-17T13:23:26;13.70;;;7.80;;
19167;SDS011;9716;53.114;18.040;2023-02-17T13:26:02;19.17;;;9.17;;
19167;SDS011;9716;53.114;18.040;2023-02-17T13:28:49;17.20;;;8.17;;
19167;SDS011;9716;53.114;18.040;2023-02-17T13:31:22;14.63;;;7.30;;
19167;SDS011;9716;53.114;18.040;2023-02-17T13:33:52;13.90;;;8.23;;
19167;SDS011;9716;53.114;18.040;2023-02-17T13:36:32;13.67;;;7.80;;
19167;SDS011;9716;53.114;18.040;2023-02-17T13:39:02;13.57;;;7.50;;
19167;SDS011;9716;53.114;18.040;2023-02-17T13:41:43;11.07;;;7.23;;
19167;SDS011;9716;53.114;18.040;2023-02-17T13:44:19;14.60;;;8.35;;
19167;SDS011;9716;53.114;18.040;2023-02-17T13:46:56;14.43;;;7.50;;
19167;SDS011;9716;53.114;18.040;2023-02-17T13:49:28;13.83;;;7.03;;
19167;SDS011;9716;53.114;18.040;2023-02-17T13:52:09;18.07;;;7.93;;
19167;SDS011;9716;53.114;18.040;2023-02-17T13:54:50;15.23;;;8.27;;
19167;SDS011;9716;53.114;18.040;2023-02-17T13:57:21;9.23;;;6.33;;
19167;SDS011;9716;53.114;18.040;2023-02-17T13:59:50;13.30;;;7.53;;
19167;SDS011;9716;53.114;18.040;2023-02-17T14:02:21;11.90;;;6.93;;
19167;SDS011;9716;53.114;18.040;2023-02-17T14:05:05;11.63;;;6.90;;
19167;SDS011;9716;53.114;18.040;2023-02-17T14:07:43;13.25;;;7.50;;
19167;SDS011;9716;53.114;18.040;2023-02-17T14:10:16;13.97;;;8.03;;
19167;SDS011;9716;53.114;18.040;2023-02-17T14:12:45;11.83;;;7.30;;
19167;SDS011;9716;53.114;18.040;2023-02-17T14:15:15;13.93;;;8.00;;
19167;SDS011;9716;53.114;18.040;2023-02-17T14:17:46;11.83;;;7.50;;
19167;SDS011;9716;53.114;18.040;2023-02-17T14:20:28;14.50;;;7.17;;
19167;SDS011;9716;53.114;18.040;2023-02-17T14:22:59;14.77;;;7.40;;
19167;SDS011;9716;53.114;18.040;2023-02-17T14:25:31;23.13;;;7.67;;
19167;SDS011;9716;53.114;18.040;2023-02-17T14:28:02;14.17;;;6.83;;
19167;SDS011;9716;53.114;18.040;2023-02-17T14:30:32;12.30;;;7.63;;
19167;SDS011;9716;53.114;18.040;2023-02-17T14:33:05;11.47;;;6.83;;
19167;SDS011;9716;53.114;18.040;2023-02-17T14:35:35;13.93;;;7.53;;
19167;SDS011;9716;53.114;18.040;2023-02-17T14:38:05;13.65;;;7.88;;
19167;SDS011;9716;53.114;18.040;2023-02-17T14:40:35;17.97;;;9.83;;
19167;SDS011;9716;53.114;18.040;2023-02-17T14:43:06;16.37;;;9.43;;
19167;SDS011;9716;53.114;18.040;2023-02-17T14:45:34;19.77;;;9.77;;
19167;SDS011;9716;53.114;18.040;2023-02-17T14:48:04;14.13;;;8.43;;
19167;SDS011;9716;53.114;18.040;2023-02-17T14:50:33;15.30;;;7.80;;
19167;SDS011;9716;53.114;18.040;2023-02-17T14:53:09;18.23;;;8.97;;
19167;SDS011;9716;53.114;18.040;2023-02-17T14:55:42;15.33;;;8.47;;
19167;SDS011;9716;53.114;18.040;2023-02-17T14:58:16;13.60;;;7.47;;
19167;SDS011;9716;53.114;18.040;2023-02-17T15:00:47;13.77;;;7.60;;